Time;durP1;ratioP1;P1;durP2;ratioP2;P2;SDS_P1;SDS_P2;PMS_P1;PMS_P2;Temp;Humidity;BMP_temperature;BMP_pressure;BME280_temperature;BME280_humidity;BME280_pressure;Samples;Min_cycle;Max_cycle;Signal;HPM_P1;HPM_P2
2024/01/22 00:00:13;;;;;;;5.77;2.10;;;9.00;99.90;;;;;;5033483;28;20264;-70
2024/01/22 00:02:42;;;;;;;3.97;2.00;;;9.00;99.90;;;;;;5037778;28;20178;-67
2024/01/22 00:05:10;;;;;;;4.45;1.90;;;9.00;99.90;;;;;;5037359;28;20174;-68
2024/01/22 00:07:36;;;;;;;5.13;2.13;;;9.00;99.90;;;;;;5036136;28;20209;-67
2024/01/22 00:10:05;;;;;;;4.97;2.25;;;9.20;99.90;;;;;;5025956;28;20250;-67
2024/01/22 00:12:33;;;;;;;5.50;2.45;;;9.10;99.90;;;;;;5023528;28;20186;-66
2024/01/22 00:15:01;;;;;;;4.10;2.20;;;9.10;99.90;;;;;;5026338;28;20284;-67
2024/01/22 00:17:29;;;;;;;5.88;2.10;;;9.10;99.90;;;;;;5031414;28;20190;-68
2024/01/22 00:19:54;;;;;;;2.90;1.98;;;9.20;99.90;;;;;;5035492;28;20193;-66
2024/01/22 00:22:20;;;;;;;2.55;1.90;;;9.20;99.90;;;;;;5018159;28;20182;-67
2024/01/22 00:24:46;;;;;;;3.95;2.00;;;9.20;99.90;;;;;;5027402;28;20183;-67
2024/01/22 00:27:14;;;;;;;4.28;1.70;;;9.20;99.90;;;;;;5029867;28;20213;-67
2024/01/22 00:29:39;;;;;;;3.50;1.83;;;9.30;99.90;;;;;;5030477;28;20171;-67
2024/01/22 00:32:08;;;;;;;2.88;1.60;;;9.30;99.90;;;;;;5017206;28;20163;-67
2024/01/22 00:34:33;;;;;;;3.78;1.70;;;9.30;99.90;;;;;;5026170;28;20197;-67
2024/01/22 00:36:59;;;;;;;2.00;1.40;;;9.30;99.90;;;;;;5036770;28;20184;-68
2024/01/22 00:39:25;;;;;;;3.13;1.88;;;9.40;99.90;;;;;;5033823;28;20191;-67
2024/01/22 00:41:51;;;;;;;2.53;1.33;;;9.50;99.90;;;;;;5027178;28;20202;-67
2024/01/22 00:44:17;;;;;;;1.95;1.38;;;9.50;99.90;;;;;;5046067;28;20178;-67
2024/01/22 00:46:45;;;;;;;3.17;1.77;;;9.40;99.90;;;;;;5035047;28;20271;-66
2024/01/22 00:49:10;;;;;;;2.53;1.60;;;9.50;99.90;;;;;;5030342;28;20257;-67
2024/01/22 00:51:39;;;;;;;2.97;1.40;;;9.60;99.90;;;;;;5025572;28;20253;-67
2024/01/22 00:54:07;;;;;;;3.33;1.60;;;9.60;99.90;;;;;;5033106;28;20198;-67
2024/01/22 00:56:33;;;;;;;2.58;1.60;;;9.70;99.90;;;;;;5034220;28;20236;-68
2024/01/22 00:59:01;;;;;;;2.88;1.60;;;9.80;99.90;;;;;;5033936;28;20227;-67
2024/01/22 01:01:33;;;;;;;3.15;1.70;;;9.80;99.90;;;;;;5025894;28;20226;-67
2024/01/22 01:03:58;;;;;;;3.70;1.77;;;9.90;99.90;;;;;;5032520;28;20178;-68
2024/01/22 01:06:24;;;;;;;4.53;1.83;;;9.90;99.90;;;;;;5031888;28;20198;-68
2024/01/22 01:08:52;;;;;;;4.03;1.60;;;10.10;99.90;;;;;;5036191;28;20214;-67
2024/01/22 01:11:17;;;;;;;3.60;1.70;;;10.00;99.90;;;;;;5034729;28;20178;-68
2024/01/22 01:13:49;;;;;;;7.00;2.67;;;10.10;99.90;;;;;;5036487;28;20185;-69
2024/01/22 01:16:17;;;;;;;7.47;2.10;;;10.10;99.90;;;;;;5028440;28;20178;-67
2024/01/22 01:21:28;;;;;;;4.63;2.00;;;10.20;99.90;;;;;;5031978;28;20193;-66
2024/01/22 01:23:54;;;;;;;4.38;1.70;;;10.20;99.90;;;;;;5021217;28;20217;-68
2024/01/22 01:26:19;;;;;;;4.18;2.00;;;10.20;99.90;;;;;;5035632;28;20217;-67
2024/01/22 01:28:45;;;;;;;2.97;1.60;;;10.20;99.90;;;;;;5032161;28;20213;-68
2024/01/22 01:31:10;;;;;;;3.58;1.50;;;10.20;99.90;;;;;;5032267;28;20178;-68
2024/01/22 01:33:39;;;;;;;2.63;1.50;;;10.20;99.90;;;;;;5035734;28;20181;-68
2024/01/22 01:36:04;;;;;;;2.30;1.45;;;10.20;99.90;;;;;;5031950;28;20202;-67
2024/01/22 01:38:43;;;;;;;3.22;1.70;;;10.20;99.90;;;;;;5035105;28;20219;-68
2024/01/22 01:41:11;;;;;;;3.00;1.30;;;10.20;99.90;;;;;;5029889;28;20246;-67
2024/01/22 01:43:37;;;;;;;4.40;1.50;;;10.20;99.90;;;;;;5035253;28;20204;-67
2024/01/22 01:46:03;;;;;;;3.03;1.50;;;10.20;99.90;;;;;;5034709;28;20182;-67
2024/01/22 01:48:29;;;;;;;3.15;1.20;;;10.20;99.90;;;;;;5035153;28;20190;-67
2024/01/22 01:51:00;;;;;;;3.13;1.60;;;10.20;99.90;;;;;;5033171;28;20231;-67
2024/01/22 01:53:27;;;;;;;3.30;1.77;;;10.10;99.90;;;;;;5021823;28;20179;-67
2024/01/22 01:55:57;;;;;;;2.13;1.42;;;10.20;99.90;;;;;;5033283;28;20206;-68
2024/01/22 01:58:22;;;;;;;2.53;1.50;;;10.20;99.90;;;;;;5031802;28;20472;-68
2024/01/22 02:00:51;;;;;;;1.67;1.30;;;10.20;99.90;;;;;;5036682;28;20185;-68
2024/01/22 02:03:17;;;;;;;2.00;1.40;;;10.20;99.90;;;;;;5034101;28;20198;-67
2024/01/22 02:05:47;;;;;;;3.20;1.40;;;10.20;99.90;;;;;;5026970;28;20213;-69
2024/01/22 02:08:13;;;;;;;2.88;1.20;;;10.30;99.90;;;;;;5035069;28;20206;-68
2024/01/22 02:10:45;;;;;;;3.10;1.30;;;10.30;99.90;;;;;;5026436;28;20167;-68
2024/01/22 02:13:10;;;;;;;1.92;1.27;;;10.30;99.90;;;;;;5032485;28;20185;-69
2024/01/22 02:15:36;;;;;;;3.33;1.30;;;10.30;99.90;;;;;;5033584;28;20182;-65
2024/01/22 02:18:02;;;;;;;2.13;1.30;;;10.30;99.90;;;;;;5023626;28;20778;-66
2024/01/22 02:20:29;;;;;;;2.85;1.50;;;10.30;99.90;;;;;;5034731;28;20193;-67
2024/01/22 02:22:55;;;;;;;4.95;1.70;;;10.30;99.90;;;;;;5029470;28;20211;-66
2024/01/22 02:25:20;;;;;;;2.70;1.40;;;10.30;99.90;;;;;;5028573;28;20177;-67
2024/01/22 02:27:48;;;;;;;2.58;1.40;;;10.30;99.90;;;;;;5033521;28;20448;-67
2024/01/22 02:30:14;;;;;;;4.88;1.50;;;10.30;99.90;;;;;;5033922;28;20208;-67
2024/01/22 02:32:42;;;;;;;3.08;1.50;;;10.30;99.90;;;;;;5025627;28;20178;-66
2024/01/22 02:35:10;;;;;;;2.78;1.50;;;10.30;99.90;;;;;;5025555;28;20186;-67
2024/01/22 02:37:40;;;;;;;1.75;1.20;;;10.30;99.90;;;;;;5015042;28;20202;-66
2024/01/22 02:40:06;;;;;;;1.95;1.40;;;10.30;99.90;;;;;;5035734;28;20188;-67
2024/01/22 02:42:32;;;;;;;3.00;1.40;;;10.40;99.90;;;;;;5036234;28;20189;-67
2024/01/22 02:45:01;;;;;;;2.92;1.60;;;10.40;99.90;;;;;;5028541;28;20198;-67
2024/01/22 02:47:27;;;;;;;4.07;1.73;;;10.40;99.90;;;;;;5014998;28;20198;-67
2024/01/22 02:49:52;;;;;;;2.78;1.60;;;10.40;99.90;;;;;;5034222;28;20224;-66
2024/01/22 02:52:18;;;;;;;3.25;1.80;;;10.40;99.90;;;;;;5036709;28;20185;-68
2024/01/22 02:54:44;;;;;;;3.08;1.50;;;10.50;99.90;;;;;;5044701;28;20483;-67
2024/01/22 02:57:12;;;;;;;2.70;1.60;;;10.40;99.90;;;;;;5043019;28;20267;-67
2024/01/22 02:59:40;;;;;;;3.88;1.70;;;10.40;99.90;;;;;;5049320;28;20201;-67
2024/01/22 03:02:08;;;;;;;4.15;1.63;;;10.50;99.90;;;;;;5029696;28;20183;-68
2024/01/22 03:04:36;;;;;;;2.85;1.30;;;10.50;99.90;;;;;;5047782;28;20324;-67
2024/01/22 03:07:02;;;;;;;2.60;1.30;;;10.50;99.90;;;;;;5023311;28;20181;-67
2024/01/22 03:09:28;;;;;;;4.00;1.60;;;10.50;99.90;;;;;;5014169;28;20174;-67
2024/01/22 03:11:53;;;;;;;3.65;1.23;;;10.50;99.90;;;;;;5025127;28;20206;-67
2024/01/22 03:14:19;;;;;;;3.13;1.85;;;10.50;99.90;;;;;;5049034;28;20173;-67
2024/01/22 03:16:44;;;;;;;1.52;1.02;;;10.60;99.90;;;;;;5049630;28;20184;-67
2024/01/22 03:19:12;;;;;;;3.20;1.50;;;10.60;99.90;;;;;;5027701;28;20182;-67
2024/01/22 03:21:38;;;;;;;1.90;1.35;;;10.60;99.90;;;;;;5030459;28;20365;-68
2024/01/22 03:24:06;;;;;;;2.10;1.40;;;10.60;99.90;;;;;;5029952;28;20264;-68
2024/01/22 03:26:33;;;;;;;1.60;1.00;;;10.60;99.90;;;;;;5027966;28;20174;-67
2024/01/22 03:28:59;;;;;;;2.10;1.23;;;10.60;99.90;;;;;;5035296;28;20194;-69
2024/01/22 03:31:27;;;;;;;3.85;1.58;;;10.50;99.90;;;;;;5023053;28;20255;-68
2024/01/22 03:33:56;;;;;;;1.73;1.17;;;10.60;99.90;;;;;;5036373;28;20274;-68
2024/01/22 03:36:27;;;;;;;1.17;0.95;;;10.60;99.90;;;;;;5037938;28;20273;-67
2024/01/22 03:38:53;;;;;;;2.17;1.20;;;10.60;99.90;;;;;;5034761;28;20177;-67
2024/01/22 03:41:18;;;;;;;1.70;1.20;;;10.60;99.90;;;;;;5026656;28;20236;-66
2024/01/22 03:43:47;;;;;;;1.33;0.80;;;10.60;99.90;;;;;;5027311;28;20188;-67
2024/01/22 03:46:15;;;;;;;3.90;1.42;;;10.60;99.90;;;;;;5033939;28;20178;-68
2024/01/22 03:48:41;;;;;;;2.03;1.17;;;10.60;99.90;;;;;;5037687;28;20233;-67
2024/01/22 03:51:07;;;;;;;1.75;1.25;;;10.60;99.90;;;;;;5036662;28;20240;-66
2024/01/22 03:53:35;;;;;;;1.80;1.08;;;10.60;99.90;;;;;;5018327;28;20170;-67
2024/01/22 03:56:05;;;;;;;1.98;1.10;;;10.60;99.90;;;;;;5036963;28;20202;-66
2024/01/22 03:58:33;;;;;;;2.90;1.27;;;10.60;99.90;;;;;;5031736;28;20212;-66
2024/01/22 04:01:02;;;;;;;2.35;1.20;;;10.60;99.90;;;;;;5033924;28;20221;-66
2024/01/22 04:03:30;;;;;;;3.08;1.50;;;10.60;99.90;;;;;;5035568;28;20246;-67
2024/01/22 04:05:56;;;;;;;2.10;1.25;;;10.70;99.90;;;;;;5035851;28;20208;-66
2024/01/22 04:08:21;;;;;;;2.47;1.50;;;10.60;99.90;;;;;;5021866;28;20202;-67
2024/01/22 04:10:49;;;;;;;2.78;1.60;;;10.60;99.90;;;;;;5037044;28;20189;-67
2024/01/22 04:13:15;;;;;;;1.60;1.40;;;10.60;99.90;;;;;;5032888;28;20210;-66
2024/01/22 04:15:41;;;;;;;1.10;0.90;;;10.60;99.90;;;;;;5032878;28;20185;-66
2024/01/22 04:18:06;;;;;;;1.33;0.88;;;10.60;99.90;;;;;;5033857;28;20206;-67
2024/01/22 04:20:32;;;;;;;2.83;1.20;;;10.60;99.90;;;;;;5031463;28;20196;-67
2024/01/22 04:22:58;;;;;;;2.15;1.00;;;10.70;99.90;;;;;;5040574;28;20193;-67
2024/01/22 04:25:23;;;;;;;2.85;1.00;;;10.50;99.90;;;;;;5036269;28;20197;-66
2024/01/22 04:27:49;;;;;;;1.55;1.02;;;10.60;99.90;;;;;;5032828;28;20234;-67
2024/01/22 04:30:17;;;;;;;1.30;0.70;;;10.60;99.90;;;;;;5034492;28;20186;-67
2024/01/22 04:32:43;;;;;;;1.30;0.90;;;10.60;99.90;;;;;;5034605;28;20213;-67
2024/01/22 04:35:13;;;;;;;1.40;0.70;;;10.60;99.90;;;;;;5031849;28;20175;-68
2024/01/22 04:37:41;;;;;;;1.13;0.60;;;10.60;99.90;;;;;;5020885;28;20261;-67
2024/01/22 04:40:14;;;;;;;1.60;0.93;;;10.60;99.90;;;;;;5023423;28;20202;-66
2024/01/22 04:42:44;;;;;;;1.35;0.90;;;10.60;99.90;;;;;;5025617;28;20178;-67
2024/01/22 04:45:09;;;;;;;0.70;0.60;;;10.60;99.90;;;;;;5034311;28;20202;-67
2024/01/22 04:47:35;;;;;;;1.10;0.70;;;10.60;99.90;;;;;;5028679;28;20206;-67
2024/01/22 04:50:06;;;;;;;0.73;0.60;;;10.50;99.90;;;;;;5034556;28;20186;-67
2024/01/22 04:52:32;;;;;;;0.93;0.70;;;10.60;99.90;;;;;;5026001;28;20237;-68
2024/01/22 04:54:58;;;;;;;1.42;0.80;;;10.50;99.90;;;;;;5032908;28;20201;-68
2024/01/22 04:57:24;;;;;;;0.85;0.70;;;10.50;99.90;;;;;;5031900;28;20269;-68
2024/01/22 04:59:49;;;;;;;1.65;1.02;;;10.50;99.90;;;;;;5031343;28;20201;-68
2024/01/22 05:02:22;;;;;;;1.80;0.82;;;10.50;99.90;;;;;;5027656;28;20194;-67
2024/01/22 05:04:48;;;;;;;3.25;0.88;;;10.50;99.90;;;;;;5028785;28;20273;-67
2024/01/22 05:07:16;;;;;;;1.00;0.65;;;10.50;99.90;;;;;;5035071;28;20465;-68
2024/01/22 05:09:44;;;;;;;1.05;0.80;;;10.50;99.90;;;;;;5033262;28;20178;-68
2024/01/22 05:12:09;;;;;;;1.20;0.90;;;10.50;99.90;;;;;;5029232;28;20178;-67
2024/01/22 05:14:40;;;;;;;1.40;0.80;;;10.50;99.90;;;;;;5033685;28;20181;-68
2024/01/22 05:17:08;;;;;;;0.93;0.80;;;10.50;99.90;;;;;;5032533;28;20201;-68
2024/01/22 05:19:33;;;;;;;1.20;0.90;;;10.50;99.90;;;;;;5032303;28;20213;-69
2024/01/22 05:21:59;;;;;;;1.63;0.80;;;10.50;99.90;;;;;;5028651;28;20259;-68
2024/01/22 05:24:25;;;;;;;1.60;0.90;;;10.60;99.90;;;;;;5025948;28;20183;-68
2024/01/22 05:26:50;;;;;;;1.75;0.90;;;10.50;99.90;;;;;;5025812;28;20194;-68
2024/01/22 05:29:16;;;;;;;2.03;0.73;;;10.60;99.90;;;;;;5027453;28;20170;-68
2024/01/22 05:31:42;;;;;;;1.90;0.85;;;10.60;99.90;;;;;;5032724;28;20280;-68
2024/01/22 05:34:07;;;;;;;1.60;1.00;;;10.60;99.90;;;;;;5031546;28;20194;-67
2024/01/22 05:36:35;;;;;;;2.75;1.25;;;10.60;99.90;;;;;;5034500;28;20189;-67
2024/01/22 05:39:01;;;;;;;1.33;0.85;;;10.60;99.90;;;;;;5025259;28;20170;-66
2024/01/22 05:41:29;;;;;;;1.65;0.90;;;10.60;99.90;;;;;;5049447;28;20177;-68
2024/01/22 05:43:57;;;;;;;1.80;0.88;;;10.60;99.90;;;;;;5025478;28;20190;-69
2024/01/22 05:46:22;;;;;;;1.10;0.82;;;10.70;99.90;;;;;;5033878;28;20182;-67
2024/01/22 05:48:48;;;;;;;1.10;0.85;;;10.70;99.90;;;;;;5027096;28;20224;-72
2024/01/22 05:51:16;;;;;;;1.90;0.90;;;10.70;99.90;;;;;;5034441;28;20177;-68
2024/01/22 05:53:42;;;;;;;1.17;0.90;;;10.80;99.90;;;;;;5032155;28;20190;-68
2024/01/22 05:56:08;;;;;;;1.90;1.05;;;10.80;99.90;;;;;;5031359;28;20185;-68
2024/01/22 05:58:34;;;;;;;0.73;0.65;;;10.80;99.90;;;;;;5035075;28;20178;-68
2024/01/22 06:01:02;;;;;;;1.35;0.80;;;10.80;99.90;;;;;;5035424;28;20202;-67
2024/01/22 06:03:30;;;;;;;1.88;1.00;;;10.80;99.90;;;;;;5029761;28;20183;-68
2024/01/22 06:05:58;;;;;;;1.95;1.20;;;10.90;99.90;;;;;;5023833;28;20182;-68
2024/01/22 06:08:23;;;;;;;1.02;0.73;;;10.90;99.90;;;;;;5029933;28;20283;-67
2024/01/22 06:10:51;;;;;;;1.40;0.90;;;11.00;99.90;;;;;;5019021;28;20431;-67
2024/01/22 06:13:17;;;;;;;1.30;0.90;;;11.00;99.90;;;;;;5039392;28;20179;-67
2024/01/22 06:15:44;;;;;;;1.50;0.70;;;11.10;99.90;;;;;;5028302;28;20184;-68
2024/01/22 06:18:10;;;;;;;1.38;1.20;;;11.10;99.90;;;;;;5024205;28;20225;-66
2024/01/22 06:20:36;;;;;;;1.30;0.88;;;11.10;99.90;;;;;;5028638;28;20206;-67
2024/01/22 06:23:03;;;;;;;1.02;0.80;;;11.20;99.90;;;;;;5023062;28;20348;-67
2024/01/22 06:25:32;;;;;;;2.00;1.10;;;11.30;99.90;;;;;;5034604;28;20268;-67
2024/01/22 06:27:57;;;;;;;1.10;0.90;;;11.30;99.90;;;;;;5033581;28;20193;-68
2024/01/22 06:30:23;;;;;;;2.10;1.00;;;11.30;99.90;;;;;;5032920;28;20389;-67
2024/01/22 06:32:50;;;;;;;1.10;0.70;;;11.40;99.90;;;;;;5033716;28;20213;-67
2024/01/22 06:35:16;;;;;;;1.10;0.50;;;11.40;99.90;;;;;;5034776;28;20182;-67
2024/01/22 06:37:42;;;;;;;1.33;0.68;;;11.40;99.90;;;;;;5041730;28;20228;-67
2024/01/22 06:40:08;;;;;;;1.17;0.65;;;11.40;99.90;;;;;;5037310;28;20218;-67
2024/01/22 06:42:33;;;;;;;0.65;0.60;;;11.50;99.90;;;;;;5033058;28;20241;-66
2024/01/22 06:44:59;;;;;;;0.93;0.63;;;11.50;99.90;;;;;;5026056;28;20186;-67
2024/01/22 06:47:25;;;;;;;1.42;0.80;;;11.50;99.90;;;;;;5049186;28;20197;-67
2024/01/22 06:49:53;;;;;;;1.50;0.60;;;11.40;99.90;;;;;;5037988;28;20173;-66
2024/01/22 06:52:23;;;;;;;0.98;0.60;;;11.50;99.90;;;;;;5033985;28;20198;-66
2024/01/22 06:54:51;;;;;;;0.30;0.30;;;11.40;99.90;;;;;;5033306;28;20181;-67
2024/01/22 06:57:17;;;;;;;0.60;0.50;;;11.40;99.90;;;;;;5031715;28;20170;-66
2024/01/22 06:59:44;;;;;;;0.80;0.50;;;11.40;99.90;;;;;;5030359;28;20202;-67
2024/01/22 07:02:10;;;;;;;0.47;0.43;;;11.40;99.90;;;;;;5029050;28;20193;-67
2024/01/22 07:04:36;;;;;;;0.95;0.50;;;11.40;99.90;;;;;;5027626;28;20240;-66
2024/01/22 07:07:03;;;;;;;0.40;0.40;;;11.40;99.90;;;;;;5033381;28;20190;-67
2024/01/22 07:09:29;;;;;;;0.38;0.30;;;11.40;99.90;;;;;;5019813;28;20235;-67
2024/01/22 07:11:54;;;;;;;0.40;0.40;;;11.40;99.90;;;;;;5022842;28;20198;-66
2024/01/22 07:14:20;;;;;;;1.27;0.60;;;11.40;99.90;;;;;;5031644;28;20202;-65
2024/01/22 07:16:46;;;;;;;0.60;0.50;;;11.40;99.90;;;;;;5025916;28;20229;-66
2024/01/22 07:19:11;;;;;;;1.58;0.50;;;11.40;99.90;;;;;;5022057;28;20209;-66
2024/01/22 07:21:37;;;;;;;1.08;0.40;;;11.40;99.90;;;;;;5030366;28;20232;-66
2024/01/22 07:24:03;;;;;;;0.60;0.40;;;11.40;99.90;;;;;;5040471;28;20239;-66
2024/01/22 07:26:28;;;;;;;0.75;0.40;;;11.50;99.90;;;;;;5026881;28;20194;-66
2024/01/22 07:28:56;;;;;;;0.60;0.40;;;11.50;99.90;;;;;;5019177;28;20256;-71
2024/01/22 07:31:22;;;;;;;1.73;0.70;;;11.60;99.90;;;;;;5034712;28;20200;-68
2024/01/22 07:33:47;;;;;;;0.70;0.50;;;11.60;99.90;;;;;;5026671;28;20170;-68
2024/01/22 07:36:13;;;;;;;1.25;0.70;;;11.60;99.90;;;;;;5034029;28;20213;-69
2024/01/22 07:38:39;;;;;;;1.73;0.50;;;11.60;99.90;;;;;;5032331;28;20216;-68
2024/01/22 07:41:06;;;;;;;0.85;0.60;;;11.60;99.90;;;;;;5046247;28;20264;-69
2024/01/22 07:43:34;;;;;;;0.50;0.40;;;11.60;99.90;;;;;;5036905;28;20177;-68
2024/01/22 07:46:02;;;;;;;0.85;0.60;;;11.60;99.90;;;;;;5026933;28;20209;-67
2024/01/22 07:48:28;;;;;;;1.20;0.50;;;11.60;99.90;;;;;;5024359;28;20273;-68
2024/01/22 07:50:53;;;;;;;0.38;0.38;;;11.60;99.90;;;;;;5033577;28;20182;-68
2024/01/22 07:53:19;;;;;;;1.38;0.60;;;11.60;99.90;;;;;;5033905;28;20228;-69
2024/01/22 07:55:45;;;;;;;1.17;0.50;;;11.60;99.90;;;;;;5033621;28;20185;-68
2024/01/22 07:58:14;;;;;;;0.90;0.50;;;11.60;99.90;;;;;;5033774;28;20178;-68
2024/01/22 08:00:40;;;;;;;0.35;0.30;;;11.60;99.90;;;;;;5046295;28;20209;-69
2024/01/22 08:03:06;;;;;;;0.45;0.43;;;11.60;99.90;;;;;;5033107;28;20182;-68
2024/01/22 08:05:33;;;;;;;0.73;0.40;;;11.60;99.90;;;;;;5032743;28;20182;-68
2024/01/22 08:07:59;;;;;;;0.60;0.50;;;11.60;99.90;;;;;;5032039;28;20194;-69
2024/01/22 08:10:25;;;;;;;0.68;0.35;;;11.70;99.90;;;;;;5033433;28;20180;-69
2024/01/22 08:12:55;;;;;;;0.77;0.57;;;11.70;99.90;;;;;;5037003;28;20170;-67
2024/01/22 08:15:23;;;;;;;0.90;0.60;;;11.70;99.90;;;;;;5021438;28;20242;-68
2024/01/22 08:17:48;;;;;;;0.80;0.60;;;11.70;99.90;;;;;;5024281;28;20253;-68
2024/01/22 08:20:17;;;;;;;1.33;0.70;;;11.80;99.90;;;;;;5026602;28;20268;-68
2024/01/22 08:22:46;;;;;;;0.88;0.65;;;11.80;99.90;;;;;;5031338;28;20179;-68
2024/01/22 08:25:18;;;;;;;0.80;0.60;;;11.80;99.90;;;;;;5034146;28;20244;-68
2024/01/22 08:27:47;;;;;;;1.13;0.80;;;11.90;99.90;;;;;;5028573;28;20193;-67
2024/01/22 08:30:18;;;;;;;1.55;0.82;;;11.90;99.90;;;;;;5027557;28;20171;-67
2024/01/22 08:32:43;;;;;;;1.50;0.85;;;12.00;99.90;;;;;;5017623;28;20175;-69
2024/01/22 08:35:11;;;;;;;0.80;0.60;;;12.00;99.90;;;;;;5005634;28;20206;-69
2024/01/22 08:37:45;;;;;;;1.00;0.70;;;12.10;99.90;;;;;;5016794;28;20259;-66
2024/01/22 08:40:16;;;;;;;0.98;0.47;;;12.20;99.90;;;;;;5031107;28;20189;-66
2024/01/22 08:42:46;;;;;;;0.40;0.40;;;12.30;99.90;;;;;;5035940;28;20260;-65
2024/01/22 08:45:11;;;;;;;1.13;0.40;;;12.40;99.90;;;;;;5036821;28;20205;-65
2024/01/22 08:47:37;;;;;;;0.40;0.35;;;12.50;99.90;;;;;;5036065;28;20230;-65
2024/01/22 08:50:05;;;;;;;0.95;0.60;;;12.60;99.90;;;;;;5036321;28;20170;-65
2024/01/22 08:52:31;;;;;;;1.27;0.70;;;12.60;99.90;;;;;;5036500;28;20277;-65
2024/01/22 08:55:05;;;;;;;1.75;0.60;;;12.70;99.90;;;;;;5036103;28;20198;-66
2024/01/22 08:57:31;;;;;;;1.40;0.60;;;12.80;99.90;;;;;;5036169;28;20174;-65
2024/01/22 08:59:57;;;;;;;1.65;0.90;;;12.90;99.90;;;;;;5036253;28;20178;-67
2024/01/22 09:02:23;;;;;;;1.58;0.85;;;12.90;99.90;;;;;;5032696;28;20525;-64
2024/01/22 09:04:48;;;;;;;1.15;0.70;;;13.00;99.90;;;;;;5036284;28;20174;-65
2024/01/22 09:07:16;;;;;;;3.05;0.70;;;13.00;99.90;;;;;;5018352;28;20214;-66
2024/01/22 09:09:42;;;;;;;1.90;0.60;;;13.10;99.90;;;;;;5016167;28;20175;-67
2024/01/22 09:12:08;;;;;;;2.63;0.95;;;13.20;99.90;;;;;;5016197;28;20175;-66
2024/01/22 09:14:36;;;;;;;1.33;0.70;;;13.20;99.90;;;;;;5030573;28;20202;-67
2024/01/22 09:17:03;;;;;;;3.03;0.85;;;13.30;99.90;;;;;;5035383;28;20194;-67
2024/01/22 09:19:29;;;;;;;2.20;1.00;;;13.40;99.90;;;;;;5035860;28;20185;-67
2024/01/22 09:21:59;;;;;;;2.35;0.90;;;13.40;99.90;;;;;;5034714;28;20208;-66
2024/01/22 09:24:25;;;;;;;2.58;1.13;;;13.40;99.90;;;;;;5026580;28;20182;-66
2024/01/22 09:26:51;;;;;;;2.45;1.00;;;13.50;99.90;;;;;;5017684;28;20175;-66
2024/01/22 09:29:21;;;;;;;2.30;1.13;;;13.50;99.90;;;;;;5035349;28;20205;-65
2024/01/22 09:31:49;;;;;;;2.13;1.23;;;13.60;99.90;;;;;;5035616;28;20182;-66
2024/01/22 09:34:15;;;;;;;1.95;0.93;;;13.60;99.90;;;;;;5035770;28;20174;-65
2024/01/22 09:36:46;;;;;;;3.50;1.10;;;13.60;99.90;;;;;;5035373;28;20170;-66
2024/01/22 09:39:12;;;;;;;2.80;0.98;;;13.60;99.90;;;;;;5035625;28;20260;-66
2024/01/22 09:41:38;;;;;;;2.53;0.80;;;13.70;99.90;;;;;;5034990;28;20328;-64
2024/01/22 09:44:06;;;;;;;2.78;0.95;;;13.70;99.90;;;;;;5035286;28;20174;-65
2024/01/22 09:46:35;;;;;;;1.70;0.75;;;13.70;99.90;;;;;;5034988;28;20180;-65
2024/01/22 09:49:01;;;;;;;2.40;0.60;;;13.70;99.90;;;;;;5035047;28;20189;-66
2024/01/22 09:51:28;;;;;;;1.08;0.40;;;13.80;99.90;;;;;;5033855;28;20184;-65
2024/01/22 09:54:05;;;;;;;0.90;0.45;;;13.80;99.90;;;;;;5034874;28;20174;-67
2024/01/22 09:56:31;;;;;;;1.50;0.70;;;13.90;99.90;;;;;;5034688;28;20170;-65
2024/01/22 09:59:04;;;;;;;0.73;0.40;;;13.90;99.90;;;;;;5035063;28;20182;-65
2024/01/22 10:01:31;;;;;;;1.08;0.40;;;13.90;99.90;;;;;;5034855;28;20204;-65
2024/01/22 10:03:59;;;;;;;0.60;0.50;;;13.90;99.90;;;;;;5035140;28;20174;-65
2024/01/22 10:06:28;;;;;;;0.68;0.30;;;14.00;99.90;;;;;;5030150;28;20171;-66
2024/01/22 10:08:57;;;;;;;0.57;0.50;;;14.00;99.90;;;;;;5014770;28;20205;-65
2024/01/22 10:11:25;;;;;;;0.43;0.32;;;14.00;99.90;;;;;;5015230;28;20198;-66
2024/01/22 10:13:51;;;;;;;0.68;0.40;;;14.10;99.90;;;;;;5015015;28;20233;-66
2024/01/22 10:16:19;;;;;;;0.50;0.30;;;14.10;99.90;;;;;;5014956;28;20162;-67
2024/01/22 10:19:11;;;;;;;0.40;0.30;;;14.10;99.90;;;;;;5033233;28;20248;-65
2024/01/22 10:21:40;;;;;;;0.93;0.60;;;14.10;99.90;;;;;;5034589;28;20225;-66
2024/01/22 10:24:08;;;;;;;0.30;0.30;;;14.10;99.90;;;;;;5034099;28;20212;-66
2024/01/22 10:26:39;;;;;;;0.43;0.32;;;14.10;99.90;;;;;;5034347;28;20177;-67
2024/01/22 10:29:17;;;;;;;0.43;0.35;;;14.10;99.90;;;;;;5033173;28;20275;-66
2024/01/22 10:31:57;;;;;;;0.65;0.30;;;14.20;99.90;;;;;;5034291;28;20200;-67
2024/01/22 10:34:31;;;;;;;0.55;0.40;;;14.10;99.90;;;;;;5033542;28;20180;-66
2024/01/22 10:37:07;;;;;;;0.20;0.20;;;14.10;99.90;;;;;;5034044;28;20288;-67
2024/01/22 10:39:38;;;;;;;0.22;0.22;;;14.10;99.90;;;;;;5034505;28;20162;-67
2024/01/22 10:42:12;;;;;;;1.80;1.10;;;14.10;99.90;;;;;;5034365;28;20181;-66
2024/01/22 10:44:44;;;;;;;0.50;0.50;;;14.10;99.90;;;;;;5034322;28;20202;-66
2024/01/22 10:47:17;;;;;;;0.28;0.20;;;14.10;99.90;;;;;;5034274;28;20158;-66
2024/01/22 10:49:44;;;;;;;0.32;0.32;;;14.10;99.90;;;;;;5034201;28;20185;-67
2024/01/22 10:52:09;;;;;;;0.75;0.38;;;14.00;99.90;;;;;;5035022;28;20190;-66
2024/01/22 10:54:36;;;;;;;0.70;0.40;;;14.00;99.90;;;;;;5034423;28;20196;-66
2024/01/22 10:57:04;;;;;;;0.65;0.30;;;14.00;99.90;;;;;;5034185;28;20166;-66
2024/01/22 10:59:41;;;;;;;0.20;0.20;;;14.00;99.90;;;;;;5034296;28;20189;-65
2024/01/22 11:02:12;;;;;;;0.20;0.20;;;14.00;99.90;;;;;;5014143;28;20212;-66
2024/01/22 11:04:48;;;;;;;0.25;0.25;;;13.90;99.90;;;;;;5023419;28;20173;-66
2024/01/22 11:07:19;;;;;;;0.45;0.20;;;13.90;99.90;;;;;;5034106;28;20173;-65
2024/01/22 11:09:50;;;;;;;0.85;0.20;;;13.90;99.90;;;;;;5034225;28;20177;-66
2024/01/22 11:12:19;;;;;;;0.20;0.20;;;13.90;99.90;;;;;;5033965;28;20288;-66
2024/01/22 11:14:48;;;;;;;0.30;0.30;;;13.90;99.90;;;;;;5033970;28;20269;-68
2024/01/22 11:17:15;;;;;;;0.30;0.20;;;13.90;99.90;;;;;;5033903;28;20182;-66
2024/01/22 11:19:41;;;;;;;0.35;0.30;;;13.90;99.90;;;;;;5034063;28;20173;-67
2024/01/22 11:22:23;;;;;;;0.40;0.22;;;13.90;99.90;;;;;;5023490;28;20178;-66
2024/01/22 11:25:06;;;;;;;0.30;0.30;;;13.90;99.90;;;;;;5034014;28;20166;-67
2024/01/22 11:27:39;;;;;;;1.75;0.38;;;13.90;99.90;;;;;;5033456;28;20205;-66
2024/01/22 11:30:20;;;;;;;1.85;0.30;;;13.80;99.90;;;;;;5033526;28;20177;-66
2024/01/22 11:32:46;;;;;;;0.32;0.30;;;13.80;99.90;;;;;;5031286;28;20178;-67
2024/01/22 11:35:11;;;;;;;0.70;0.40;;;13.80;99.90;;;;;;5033771;28;20209;-65
2024/01/22 11:37:40;;;;;;;0.50;0.40;;;13.80;99.90;;;;;;5033712;28;20194;-66
2024/01/22 11:40:12;;;;;;;0.28;0.20;;;13.80;99.90;;;;;;5033213;28;20424;-66
2024/01/22 11:42:40;;;;;;;0.80;0.40;;;13.80;99.90;;;;;;5033657;28;20198;-66
2024/01/22 11:45:13;;;;;;;1.27;0.20;;;13.80;99.90;;;;;;5034874;28;20209;-65
2024/01/22 11:47:44;;;;;;;1.45;0.30;;;13.80;99.90;;;;;;5036809;28;20279;-66
2024/01/22 11:50:10;;;;;;;0.77;0.40;;;13.80;99.90;;;;;;5037575;28;20243;-66
2024/01/22 11:52:37;;;;;;;0.60;0.20;;;13.80;99.90;;;;;;5037487;28;20170;-66
2024/01/22 11:55:08;;;;;;;0.20;0.20;;;13.70;99.90;;;;;;5037428;28;20170;-66
2024/01/22 11:57:38;;;;;;;0.38;0.20;;;13.70;99.90;;;;;;5037220;28;20209;-66
2024/01/22 12:00:09;;;;;;;0.50;0.30;;;13.80;99.90;;;;;;5037095;28;20190;-65
2024/01/22 12:02:36;;;;;;;0.38;0.15;;;13.70;99.90;;;;;;5037432;28;20182;-66
2024/01/22 12:05:12;;;;;;;0.15;0.15;;;13.70;99.90;;;;;;5037080;28;20208;-65
2024/01/22 12:07:45;;;;;;;0.60;0.35;;;13.70;99.90;;;;;;5036959;28;20481;-65
2024/01/22 12:10:24;;;;;;;0.40;0.40;;;13.80;99.90;;;;;;5036698;28;20166;-66
2024/01/22 12:12:55;;;;;;;1.08;0.55;;;13.70;99.90;;;;;;5036935;28;20193;-65
2024/01/22 12:15:22;;;;;;;0.75;0.70;;;13.70;99.90;;;;;;5037244;28;20298;-66
2024/01/22 12:17:48;;;;;;;1.70;0.52;;;13.80;99.90;;;;;;5033302;28;20190;-66
2024/01/22 12:20:16;;;;;;;1.63;0.50;;;13.80;99.90;;;;;;5026451;28;20234;-65
2024/01/22 12:22:42;;;;;;;1.48;0.50;;;13.80;99.90;;;;;;5035758;28;20175;-65
2024/01/22 12:25:12;;;;;;;1.45;0.70;;;13.90;99.90;;;;;;5020525;28;20218;-66
2024/01/22 12:27:38;;;;;;;1.35;0.68;;;13.90;99.90;;;;;;5036745;28;20205;-66
2024/01/22 12:30:14;;;;;;;1.83;0.75;;;13.90;99.90;;;;;;5029811;28;20178;-66
2024/01/22 12:32:52;;;;;;;3.45;0.88;;;14.00;99.90;;;;;;5016938;28;20202;-65
2024/01/22 12:35:22;;;;;;;2.97;0.90;;;14.00;99.90;;;;;;5017082;28;20293;-65
2024/01/22 12:37:50;;;;;;;2.55;1.00;;;14.10;99.90;;;;;;5032130;28;20194;-66
2024/01/22 12:40:17;;;;;;;3.63;0.88;;;14.10;99.90;;;;;;5033120;28;20202;-66
2024/01/22 12:42:49;;;;;;;2.28;0.85;;;14.10;99.90;;;;;;5016752;28;20199;-67
2024/01/22 12:45:20;;;;;;;3.10;1.00;;;14.10;99.90;;;;;;5032780;28;20190;-66
2024/01/22 12:47:46;;;;;;;3.38;0.98;;;14.20;99.90;;;;;;5016584;28;20237;-67
2024/01/22 12:50:15;;;;;;;4.60;1.23;;;14.10;99.90;;;;;;5028404;28;20201;-66
2024/01/22 12:52:44;;;;;;;4.13;0.82;;;14.20;99.90;;;;;;5036163;28;20253;-66